Time;durP1;ratioP1;P1;durP2;ratioP2;P2;SDS_P1;SDS_P2;PMS_P1;PMS_P2;Temp;Humidity;BMP_temperature;BMP_pressure;BME280_temperature;BME280_humidity;BME280_pressure;Samples;Min_cycle;Max_cycle;Signal;HPM_P1;HPM_P2
2022/05/01 00:01:11;;;;;;;13.32;9.20;;;;;;;7.56;100.00;97092.53;4981368;28;20070;-66
2022/05/01 00:03:39;;;;;;;15.32;9.57;;;;;;;7.49;100.00;97097.72;5007613;28;20042;-67
2022/05/01 00:06:07;;;;;;;16.02;10.10;;;;;;;7.45;100.00;97087.50;5009474;28;20042;-71
2022/05/01 00:08:34;;;;;;;15.43;9.98;;;;;;;7.52;100.00;97083.44;5006781;28;20046;-66
2022/05/01 00:11:00;;;;;;;18.55;12.50;;;;;;;7.62;100.00;97086.53;4975196;28;20041;-66
2022/05/01 00:13:26;;;;;;;16.38;10.65;;;;;;;7.51;100.00;97076.38;4983204;28;20067;-65
2022/05/01 00:15:52;;;;;;;15.18;10.73;;;;;;;7.52;100.00;97080.72;5001419;28;20068;-67
2022/05/01 00:18:18;;;;;;;15.27;10.90;;;;;;;7.76;100.00;97079.94;4996908;28;20045;-67
2022/05/01 00:20:45;;;;;;;16.40;10.68;;;;;;;7.83;100.00;97077.47;4993676;28;20132;-67
2022/05/01 00:23:10;;;;;;;18.77;12.07;;;;;;;7.54;100.00;97073.78;5001184;28;20107;-69
2022/05/01 00:25:41;;;;;;;22.00;12.95;;;;;;;7.43;100.00;97078.84;5009658;28;20574;-67
2022/05/01 00:28:10;;;;;;;16.42;11.45;;;;;;;7.42;100.00;97076.50;4999375;28;20077;-66
2022/05/01 00:30:36;;;;;;;19.10;11.85;;;;;;;7.37;100.00;97082.16;5004323;28;20538;-67
2022/05/01 00:38:30;;;;;;;13.73;9.32;;;;;;;7.30;100.00;97079.19;4986630;28;20524;-67
2022/05/01 00:40:56;;;;;;;15.85;10.43;;;;;;;7.32;100.00;97079.63;5001280;28;20142;-66
2022/05/01 00:43:22;;;;;;;17.25;9.85;;;;;;;7.46;100.00;97074.69;4995418;28;20745;-67
2022/05/01 00:45:48;;;;;;;14.40;9.18;;;;;;;7.56;100.00;97079.72;5001726;28;20057;-68
2022/05/01 00:48:13;;;;;;;12.43;8.50;;;;;;;7.70;100.00;97071.19;4994779;28;20053;-66
2022/05/01 00:50:39;;;;;;;16.02;10.40;;;;;;;7.80;100.00;97076.22;5001740;28;20041;-66
2022/05/01 00:53:05;;;;;;;14.95;8.88;;;;;;;7.92;100.00;97078.13;4978864;28;20133;-65
2022/05/01 00:55:35;;;;;;;17.88;11.57;;;;;;;8.04;100.00;97075.44;4973787;28;20050;-66
2022/05/01 00:58:03;;;;;;;18.88;11.57;;;;;;;7.95;100.00;97074.75;5001805;28;20379;-66
2022/05/01 01:00:29;;;;;;;19.45;10.75;;;;;;;7.84;100.00;97070.88;4978887;28;20054;-67
2022/05/01 01:02:54;;;;;;;15.57;11.10;;;;;;;7.73;100.00;97073.25;5001379;28;20200;-67
2022/05/01 01:05:20;;;;;;;18.88;13.35;;;;;;;7.64;100.00;97073.34;4995656;28;20042;-66
2022/05/01 01:07:46;;;;;;;16.15;10.85;;;;;;;7.50;100.00;97072.84;5001189;28;20060;-67
2022/05/01 01:10:12;;;;;;;19.98;11.57;;;;;;;7.34;100.00;97071.91;4995457;28;20050;-66
2022/05/01 01:12:56;;;;;;;18.25;11.20;;;;;;;7.24;100.00;97071.22;5003002;28;20383;-69
2022/05/01 01:15:23;;;;;;;17.27;10.75;;;;;;;7.20;100.00;97064.84;4995077;28;20538;-67
2022/05/01 01:17:54;;;;;;;20.17;12.07;;;;;;;7.14;100.00;97063.44;5000648;28;20046;-68
2022/05/01 01:20:23;;;;;;;20.50;13.55;;;;;;;7.11;100.00;97053.22;4995767;28;20391;-68
2022/05/01 01:22:51;;;;;;;21.70;14.27;;;;;;;7.13;100.00;97055.59;4999838;28;20038;-67
2022/05/01 01:25:20;;;;;;;22.63;14.65;;;;;;;7.11;100.00;97050.47;4984770;28;20049;-66
2022/05/01 01:27:45;;;;;;;25.05;14.32;;;;;;;7.20;100.00;97045.78;5000880;28;20042;-68
2022/05/01 01:32:56;;;;;;;26.75;16.27;;;;;;;7.31;100.00;97042.59;5001422;28;20096;-68
2022/05/01 01:35:25;;;;;;;24.58;15.00;;;;;;;7.34;100.00;97044.66;4995736;28;20073;-67
2022/05/01 01:37:53;;;;;;;22.60;14.82;;;;;;;7.28;100.00;97042.16;5000524;28;20072;-68
2022/05/01 01:40:21;;;;;;;22.98;14.75;;;;;;;7.29;100.00;97051.09;4987338;28;20064;-68
2022/05/01 01:42:49;;;;;;;26.98;15.25;;;;;;;7.30;100.00;97044.53;5004675;28;20077;-67
2022/05/01 01:45:15;;;;;;;27.00;16.85;;;;;;;7.35;100.00;97036.16;4998956;28;20056;-68
2022/05/01 01:47:40;;;;;;;27.77;17.17;;;;;;;7.21;100.00;97041.91;5004083;28;20037;-68
2022/05/01 01:50:06;;;;;;;27.13;17.20;;;;;;;7.11;100.00;97038.81;4978376;28;20077;-68
2022/05/01 01:52:35;;;;;;;31.30;18.88;;;;;;;7.04;100.00;97033.88;5000206;28;20046;-68
2022/05/01 01:55:00;;;;;;;33.67;19.70;;;;;;;7.02;100.00;97039.69;5007411;28;20046;-66
2022/05/01 01:57:26;;;;;;;29.80;19.40;;;;;;;7.04;100.00;97040.16;4999121;28;20100;-68
2022/05/01 01:59:52;;;;;;;30.75;19.35;;;;;;;7.07;100.00;97038.69;4969799;28;20120;-67
2022/05/01 02:02:17;;;;;;;30.25;18.83;;;;;;;7.16;100.00;97038.59;4996408;28;20490;-68
2022/05/01 02:04:42;;;;;;;33.90;19.58;;;;;;;7.35;100.00;97030.72;5001207;28;20498;-66
2022/05/01 02:07:08;;;;;;;33.03;18.92;;;;;;;7.56;100.00;97030.63;4995221;28;20042;-66
2022/05/01 02:09:37;;;;;;;31.65;18.35;;;;;;;7.60;100.00;97028.03;5004667;28;20369;-67
2022/05/01 02:12:06;;;;;;;26.23;17.20;;;;;;;7.71;100.00;97028.38;5002842;28;20115;-63
2022/05/01 02:14:33;;;;;;;27.08;16.85;;;;;;;7.27;100.00;97024.22;5002455;28;20300;-68
2022/05/01 02:16:58;;;;;;;28.30;18.38;;;;;;;7.23;100.00;97019.78;4995679;28;20060;-66
2022/05/01 02:19:24;;;;;;;27.77;18.13;;;;;;;7.05;100.00;97022.66;4999614;28;20622;-67
2022/05/01 02:21:49;;;;;;;31.58;18.55;;;;;;;7.05;100.00;97017.22;4986959;28;20113;-65
2022/05/01 02:24:15;;;;;;;31.80;19.13;;;;;;;6.95;100.00;97023.09;4995233;28;20073;-66
2022/05/01 02:26:40;;;;;;;31.80;19.83;;;;;;;6.91;100.00;97024.88;4994475;28;20049;-65
2022/05/01 02:29:09;;;;;;;32.67;20.00;;;;;;;6.94;100.00;97026.94;5000716;28;20394;-66
2022/05/01 02:31:37;;;;;;;33.15;19.98;;;;;;;7.15;100.00;97023.38;5004540;28;20052;-65
2022/05/01 02:34:03;;;;;;;34.00;19.25;;;;;;;7.27;100.00;97023.41;5002524;28;20141;-72
2022/05/01 02:36:29;;;;;;;29.52;18.55;;;;;;;7.38;100.00;97029.22;4999973;28;20524;-66
2022/05/01 02:38:54;;;;;;;30.27;17.20;;;;;;;7.50;100.00;97023.81;4996576;28;20095;-65
2022/05/01 02:41:20;;;;;;;23.42;15.25;;;;;;;7.61;100.00;97021.44;4999225;28;20046;-68
2022/05/01 02:43:46;;;;;;;28.00;15.32;;;;;;;7.59;100.00;97023.72;5003964;28;20441;-66
2022/05/01 02:46:11;;;;;;;32.60;16.85;;;;;;;7.53;100.00;97022.34;4981027;28;20042;-66
2022/05/01 02:48:37;;;;;;;24.92;16.88;;;;;;;7.61;100.00;97022.22;4986087;28;20069;-65
2022/05/01 02:51:05;;;;;;;28.58;16.90;;;;;;;7.64;100.00;97027.00;5000058;28;20841;-70
2022/05/01 02:53:32;;;;;;;29.20;16.70;;;;;;;7.43;100.00;97020.84;5003665;28;20058;-66
2022/05/01 02:56:00;;;;;;;29.35;19.50;;;;;;;7.20;100.00;97020.44;4983388;28;20065;-65
2022/05/01 02:58:30;;;;;;;30.30;17.63;;;;;;;7.10;100.00;97020.88;4995132;28;20049;-65
2022/05/01 03:00:56;;;;;;;29.20;19.13;;;;;;;7.11;100.00;97017.81;5000815;28;20038;-66
2022/05/01 03:03:22;;;;;;;32.20;19.15;;;;;;;6.95;100.00;97019.56;5005303;28;20689;-65
2022/05/01 03:05:47;;;;;;;27.60;17.83;;;;;;;6.92;100.00;97015.59;5022029;28;20080;-66
2022/05/01 03:08:13;;;;;;;31.60;20.38;;;;;;;6.86;100.00;97017.72;5017749;28;20445;-67
2022/05/01 03:10:39;;;;;;;35.75;20.63;;;;;;;6.76;100.00;97020.06;5015401;28;20045;-65
2022/05/01 03:13:04;;;;;;;34.47;21.05;;;;;;;6.68;100.00;97017.09;5000200;28;20065;-70
2022/05/01 03:15:30;;;;;;;37.42;20.45;;;;;;;6.76;100.00;97018.13;5009802;28;20045;-65
2022/05/01 03:23:23;;;;;;;38.28;22.92;;;;;;;6.55;100.00;97017.34;4980828;28;20421;-67
2022/05/01 03:25:49;;;;;;;35.92;21.92;;;;;;;6.55;100.00;97012.69;4991060;28;20053;-64
2022/05/01 03:28:14;;;;;;;41.38;22.45;;;;;;;6.52;100.00;97013.38;4978875;28;20054;-66
2022/05/01 03:30:40;;;;;;;34.85;21.80;;;;;;;6.48;100.00;97007.81;4985529;28;20057;-66
2022/05/01 03:33:07;;;;;;;41.20;24.98;;;;;;;6.54;100.00;97008.41;4989522;28;20097;-66
2022/05/01 03:35:35;;;;;;;36.05;21.98;;;;;;;6.62;100.00;97009.44;4985047;28;20112;-67
2022/05/01 03:38:03;;;;;;;38.85;23.25;;;;;;;6.61;100.00;97010.56;5008409;28;20064;-66
2022/05/01 03:40:28;;;;;;;35.65;21.83;;;;;;;6.74;100.00;97008.72;5007860;28;20422;-66
2022/05/01 03:42:54;;;;;;;38.88;22.00;;;;;;;6.90;100.00;97006.97;4995557;28;20046;-67
2022/05/01 03:45:20;;;;;;;31.33;19.98;;;;;;;6.89;100.00;97014.31;5005875;28;20045;-71
2022/05/01 03:47:46;;;;;;;31.70;20.13;;;;;;;6.86;100.00;97014.19;4988511;28;20056;-66
2022/05/01 03:50:11;;;;;;;35.33;21.38;;;;;;;6.85;100.00;97007.19;4999551;28;20108;-68
2022/05/01 03:52:37;;;;;;;32.10;19.75;;;;;;;6.68;100.00;97003.47;5002177;28;20053;-67
2022/05/01 03:55:03;;;;;;;34.50;21.30;;;;;;;6.54;100.00;97002.97;4999527;28;20569;-73
2022/05/01 03:57:29;;;;;;;34.85;20.30;;;;;;;6.38;100.00;97000.03;4999857;28;20069;-65
2022/05/01 03:59:54;;;;;;;36.70;21.17;;;;;;;6.40;100.00;96995.06;5001903;28;20069;-69
2022/05/01 04:02:20;;;;;;;37.22;21.55;;;;;;;6.32;100.00;96996.72;4996750;28;20129;-66
2022/05/01 04:04:46;;;;;;;37.42;22.58;;;;;;;6.38;100.00;97002.75;5002014;28;20041;-67
2022/05/01 04:07:12;;;;;;;34.58;21.73;;;;;;;6.43;100.00;97007.22;4996031;28;20041;-65
2022/05/01 04:09:38;;;;;;;32.80;21.80;;;;;;;6.45;100.00;97004.97;5001704;28;20053;-65
2022/05/01 04:12:06;;;;;;;38.55;20.95;;;;;;;6.65;100.00;97009.59;4999503;28;20064;-74
2022/05/01 04:14:32;;;;;;;36.00;21.17;;;;;;;6.75;100.00;97005.66;5000938;28;20045;-66
2022/05/01 04:16:59;;;;;;;32.25;20.38;;;;;;;6.75;100.00;97002.91;5001097;28;20512;-67
2022/05/01 04:19:25;;;;;;;31.13;18.98;;;;;;;6.77;100.00;97003.41;4996607;28;20140;-67
2022/05/01 04:21:51;;;;;;;33.67;19.60;;;;;;;6.80;100.00;96999.22;5003073;28;20125;-66
2022/05/01 04:24:16;;;;;;;31.17;19.10;;;;;;;6.94;100.00;97005.16;4996985;28;20137;-68
2022/05/01 04:26:41;;;;;;;30.30;19.00;;;;;;;7.13;100.00;97007.38;5001514;28;20054;-66
2022/05/01 04:31:51;;;;;;;27.85;17.17;;;;;;;7.51;100.00;97002.78;5001163;28;20078;-64
2022/05/01 04:34:17;;;;;;;27.02;16.77;;;;;;;7.56;100.00;97003.38;4996753;28;20116;-65
2022/05/01 04:36:43;;;;;;;27.67;16.60;;;;;;;7.49;100.00;97015.97;5000738;28;20406;-65
2022/05/01 04:39:08;;;;;;;26.27;16.98;;;;;;;7.54;100.00;97008.34;4996394;28;20446;-67
2022/05/01 04:41:34;;;;;;;26.73;16.88;;;;;;;7.60;100.00;97006.22;5002201;28;20038;-68
2022/05/01 04:44:00;;;;;;;29.50;17.13;;;;;;;7.59;100.00;97010.06;5010962;28;20038;-68
2022/05/01 04:46:26;;;;;;;24.52;16.73;;;;;;;7.63;100.00;97017.25;5008088;28;20046;-67
2022/05/01 04:48:52;;;;;;;30.23;17.10;;;;;;;7.45;100.00;97018.56;5013046;28;20046;-66
2022/05/01 04:51:17;;;;;;;30.45;18.77;;;;;;;7.40;100.00;97021.50;4981047;28;20129;-67
2022/05/01 04:53:43;;;;;;;30.80;18.98;;;;;;;7.33;100.00;97013.91;5002054;28;20458;-65
2022/05/01 04:58:52;;;;;;;27.98;17.90;;;;;;;7.49;100.00;97019.50;5004310;28;20147;-65
2022/05/01 05:01:19;;;;;;;31.58;19.02;;;;;;;7.48;100.00;97023.34;5003401;28;20642;-67
2022/05/01 05:03:45;;;;;;;28.30;18.73;;;;;;;7.60;100.00;97026.09;5006827;28;20541;-66
2022/05/01 05:06:11;;;;;;;28.63;18.10;;;;;;;7.69;100.00;97017.81;4995417;28;20049;-67
2022/05/01 05:11:20;;;;;;;26.85;17.52;;;;;;;8.07;100.00;97022.13;4995727;28;20061;-65
2022/05/01 05:13:45;;;;;;;27.60;16.77;;;;;;;8.15;100.00;97023.13;5000906;28;20498;-66
2022/05/01 05:16:13;;;;;;;30.40;16.92;;;;;;;8.18;100.00;97019.72;4994942;28;20136;-69
2022/05/01 05:18:42;;;;;;;25.60;16.35;;;;;;;8.21;100.00;97024.47;4983497;28;20513;-65
2022/05/01 05:21:08;;;;;;;27.65;17.63;;;;;;;8.32;100.00;97014.72;4995789;28;20485;-66
2022/05/01 05:23:34;;;;;;;23.80;16.30;;;;;;;8.37;100.00;97010.94;5000395;28;20038;-70
2022/05/01 05:25:59;;;;;;;25.27;17.50;;;;;;;8.39;100.00;97016.84;5001051;28;20490;-70
2022/05/01 05:28:25;;;;;;;23.40;15.98;;;;;;;8.44;100.00;97010.38;4996895;28;20049;-64
2022/05/01 05:30:51;;;;;;;23.67;16.38;;;;;;;8.35;100.00;97022.19;4977221;28;20091;-66
2022/05/01 05:33:18;;;;;;;23.20;15.98;;;;;;;8.44;100.00;97027.56;4998069;28;20046;-65
2022/05/01 05:35:43;;;;;;;22.85;15.77;;;;;;;8.52;100.00;97018.44;5000355;28;20126;-65
2022/05/01 05:38:08;;;;;;;29.08;16.50;;;;;;;8.49;100.00;97029.25;4991530;28;20135;-64
2022/05/01 05:40:34;;;;;;;26.98;17.70;;;;;;;8.65;100.00;97029.34;4996972;28;20072;-67
2022/05/01 05:42:59;;;;;;;27.52;17.00;;;;;;;8.84;100.00;97029.50;5000518;28;20395;-66
2022/05/01 05:45:25;;;;;;;26.38;16.85;;;;;;;8.87;100.00;97028.78;4992731;28;20606;-67
2022/05/01 05:47:50;;;;;;;25.27;16.30;;;;;;;9.06;100.00;97030.09;4994825;28;20077;-66
2022/05/01 05:50:16;;;;;;;27.25;16.35;;;;;;;8.99;100.00;97036.94;4995668;28;20394;-67
2022/05/01 05:52:41;;;;;;;24.38;16.52;;;;;;;8.95;100.00;97035.28;4983238;28;20115;-67
2022/05/01 05:55:07;;;;;;;26.85;16.48;;;;;;;9.33;100.00;97036.69;4977582;28;20037;-66
2022/05/01 05:57:33;;;;;;;24.15;15.77;;;;;;;9.86;100.00;97036.47;4979087;28;20123;-67
2022/05/01 05:59:58;;;;;;;24.98;15.23;;;;;;;10.26;100.00;97044.47;4999319;28;20128;-67
2022/05/01 06:02:24;;;;;;;21.45;14.20;;;;;;;10.42;100.00;97043.66;4974327;28;20209;-67
2022/05/01 06:04:49;;;;;;;21.60;14.77;;;;;;;10.78;100.00;97044.44;5000831;28;20033;-68
2022/05/01 06:07:15;;;;;;;20.45;13.35;;;;;;;12.59;100.00;97045.25;4994927;28;20482;-66
2022/05/01 06:09:40;;;;;;;22.02;13.77;;;;;;;13.25;94.01;97049.59;4999956;28;20050;-64
2022/05/01 06:12:09;;;;;;;17.95;12.05;;;;;;;14.34;93.59;97039.25;4994375;28;20224;-66
2022/05/01 06:14:35;;;;;;;17.90;11.60;;;;;;;15.93;80.29;97047.00;4990998;28;20069;-65
2022/05/01 06:17:00;;;;;;;15.38;11.13;;;;;;;15.35;78.81;97046.06;4998684;28;20038;-68
2022/05/01 06:19:25;;;;;;;16.50;10.40;;;;;;;17.14;70.48;97050.00;4995669;28;20487;-66
2022/05/01 06:21:51;;;;;;;17.30;10.68;;;;;;;17.78;67.10;97049.66;5000910;28;20100;-67
2022/05/01 06:24:16;;;;;;;13.05;9.80;;;;;;;18.77;65.97;97039.34;4995812;28;20042;-68
2022/05/01 06:26:42;;;;;;;14.05;9.63;;;;;;;19.72;56.66;97043.38;5000236;28;20042;-66
2022/05/01 06:29:08;;;;;;;14.38;9.95;;;;;;;18.11;61.72;97041.13;4987910;28;20538;-66
2022/05/01 06:31:34;;;;;;;16.27;11.13;;;;;;;18.27;61.51;97035.84;5003029;28;20061;-66
2022/05/01 06:33:59;;;;;;;14.48;10.55;;;;;;;17.22;67.67;97046.00;5002435;28;20418;-67
2022/05/01 06:36:25;;;;;;;14.48;10.07;;;;;;;16.50;72.64;97039.88;4993772;28;20042;-67
2022/05/01 06:38:50;;;;;;;14.43;10.50;;;;;;;18.85;61.29;97035.31;5000386;28;20045;-66
2022/05/01 06:41:17;;;;;;;13.52;9.57;;;;;;;20.12;54.69;97032.47;4990186;28;20046;-66
2022/05/01 06:43:43;;;;;;;13.40;10.32;;;;;;;21.19;51.40;97038.06;4991300;28;20395;-68
2022/05/01 06:46:08;;;;;;;14.93;10.32;;;;;;;21.05;49.74;97039.16;4994478;28;20041;-64
2022/05/01 06:48:34;;;;;;;15.43;10.73;;;;;;;19.98;54.01;97039.81;4991519;28;20072;-67
2022/05/01 06:51:00;;;;;;;14.00;10.20;;;;;;;19.47;55.21;97041.72;5007873;28;20045;-65
2022/05/01 06:53:25;;;;;;;11.80;8.32;;;;;;;21.28;51.19;97043.06;5011233;28;20064;-68
2022/05/01 06:55:53;;;;;;;13.32;10.07;;;;;;;21.29;49.08;97041.88;4991474;28;20046;-66
2022/05/01 06:58:19;;;;;;;13.00;9.68;;;;;;;22.25;46.94;97043.72;4999649;28;20053;-66
2022/05/01 07:00:45;;;;;;;12.50;9.32;;;;;;;22.75;45.26;97044.47;5002023;28;20041;-69
2022/05/01 07:03:11;;;;;;;17.33;10.57;;;;;;;22.62;43.71;97038.84;4992674;28;20041;-70
2022/05/01 07:05:36;;;;;;;14.23;9.60;;;;;;;23.25;42.87;97049.50;5003203;28;20100;-66
2022/05/01 07:08:01;;;;;;;11.50;9.30;;;;;;;22.47;45.92;97053.16;4985275;28;20050;-67
2022/05/01 07:10:27;;;;;;;12.75;9.73;;;;;;;21.33;48.85;97048.94;4998277;28;20619;-67
2022/05/01 07:12:52;;;;;;;15.80;9.63;;;;;;;22.31;45.95;97048.38;4995571;28;20650;-67
2022/05/01 07:15:17;;;;;;;14.68;9.85;;;;;;;22.59;43.87;97042.50;4998308;28;20046;-67
2022/05/01 07:17:43;;;;;;;13.05;10.02;;;;;;;21.52;46.03;97046.59;5007411;28;20061;-67
2022/05/01 07:20:10;;;;;;;14.68;9.95;;;;;;;20.27;49.70;97042.13;5017080;28;20099;-65
2022/05/01 07:22:36;;;;;;;16.23;11.48;;;;;;;18.21;54.97;97045.81;5010536;28;20045;-68
2022/05/01 07:25:02;;;;;;;15.20;11.20;;;;;;;18.01;55.41;97044.81;5001191;28;20049;-68
2022/05/01 07:27:27;;;;;;;18.42;12.90;;;;;;;17.35;56.99;97043.56;5004581;28;20044;-68
2022/05/01 07:29:52;;;;;;;18.38;13.52;;;;;;;16.75;59.67;97039.81;5010941;28;20498;-68
2022/05/01 07:32:18;;;;;;;19.08;12.93;;;;;;;16.02;62.21;97036.34;5011287;28;20068;-65
2022/05/01 07:34:43;;;;;;;17.02;11.65;;;;;;;16.14;64.43;97037.16;5005692;28;20046;-67
2022/05/01 07:37:09;;;;;;;17.48;12.02;;;;;;;16.03;63.73;97034.38;4978141;28;20411;-67
2022/05/01 07:39:34;;;;;;;18.65;13.07;;;;;;;15.59;65.11;97029.94;4992750;28;20056;-66
2022/05/01 07:41:59;;;;;;;18.08;12.13;;;;;;;15.20;69.11;97028.69;5003080;28;20064;-67
2022/05/01 07:44:25;;;;;;;19.45;13.25;;;;;;;15.37;67.46;97027.16;4996458;28;20042;-68
2022/05/01 07:46:53;;;;;;;18.33;12.65;;;;;;;15.14;67.71;97023.91;5002429;28;20153;-68
2022/05/01 07:49:19;;;;;;;16.20;11.63;;;;;;;15.29;67.65;97025.56;4997837;28;20100;-67
2022/05/01 07:51:44;;;;;;;20.33;11.77;;;;;;;15.17;67.28;97023.94;5000252;28;20062;-67
2022/05/01 07:54:10;;;;;;;17.63;11.38;;;;;;;14.96;67.45;97016.34;4990128;28;20081;-67
2022/05/01 07:56:36;;;;;;;19.42;11.98;;;;;;;14.48;68.29;97024.78;5004903;28;20042;-68
2022/05/01 07:59:02;;;;;;;21.17;13.95;;;;;;;14.41;68.95;97025.50;5003872;28;20117;-63
2022/05/01 08:01:28;;;;;;;18.70;11.52;;;;;;;14.43;68.86;97023.16;4976900;28;20042;-67
2022/05/01 08:06:37;;;;;;;18.45;12.35;;;;;;;14.11;73.97;97028.44;4987916;28;20076;-68
2022/05/01 08:09:04;;;;;;;19.20;11.98;;;;;;;14.95;67.88;97027.81;5000359;28;20459;-64
2022/05/01 08:11:30;;;;;;;18.63;11.23;;;;;;;16.16;62.34;97026.47;5003203;28;20124;-68
2022/05/01 08:13:56;;;;;;;16.25;11.23;;;;;;;17.54;56.74;97025.69;5002968;28;20104;-67
2022/05/01 08:16:22;;;;;;;16.52;10.98;;;;;;;17.76;54.42;97018.03;4996720;28;20561;-67
2022/05/01 08:21:33;;;;;;;16.25;10.40;;;;;;;15.83;60.66;97020.16;4997467;28;20558;-66
2022/05/01 08:23:59;;;;;;;15.98;10.98;;;;;;;15.32;62.21;97015.69;4994217;28;20042;-67
2022/05/01 08:26:25;;;;;;;15.55;11.15;;;;;;;14.82;63.28;97022.63;4996260;28;20041;-68
2022/05/01 08:28:54;;;;;;;12.82;8.88;;;;;;;15.70;61.72;97021.69;5001450;28;20084;-67
2022/05/01 08:31:21;;;;;;;13.70;9.05;;;;;;;17.77;52.50;97022.34;4987470;28;20049;-68
2022/05/01 08:33:47;;;;;;;11.48;8.23;;;;;;;17.04;54.60;97015.66;4999201;28;20049;-69
2022/05/01 08:36:13;;;;;;;14.15;9.98;;;;;;;15.07;60.56;97013.66;4997351;28;20053;-67
2022/05/01 08:38:39;;;;;;;13.57;8.98;;;;;;;15.68;58.21;97022.06;5000503;28;20487;-67
2022/05/01 08:41:06;;;;;;;13.60;8.40;;;;;;;15.96;58.65;97023.34;4995416;28;20385;-65
2022/05/01 08:43:32;;;;;;;14.40;10.10;;;;;;;15.21;62.80;97023.94;5001642;28;20056;-66
2022/05/01 08:46:16;;;;;;;14.55;9.88;;;;;;;17.17;57.35;97015.97;5000951;28;20128;-68
2022/05/01 08:48:58;;;;;;;13.35;9.18;;;;;;;19.80;48.58;97015.06;4992630;28;20051;-68
2022/05/01 08:51:24;;;;;;;12.70;8.57;;;;;;;20.18;48.60;96998.16;4996490;28;20524;-67
2022/05/01 08:53:51;;;;;;;9.60;7.40;;;;;;;21.04;46.84;97009.75;4998694;28;20050;-67
2022/05/01 08:56:18;;;;;;;10.00;6.85;;;;;;;22.01;41.55;97004.84;4990416;28;20046;-65
2022/05/01 08:58:44;;;;;;;9.55;7.28;;;;;;;20.40;46.07;97004.16;5000880;28;20042;-67
2022/05/01 09:01:11;;;;;;;9.15;7.50;;;;;;;20.66;46.13;97007.28;4994662;28;20049;-67
2022/05/01 09:03:39;;;;;;;9.48;7.07;;;;;;;20.67;45.59;97006.09;5004375;28;20524;-69
2022/05/01 09:06:05;;;;;;;9.20;6.82;;;;;;;19.62;47.05;97001.41;5003420;28;20053;-64
2022/05/01 09:08:31;;;;;;;10.02;6.93;;;;;;;19.68;49.24;97007.28;4999792;28;20046;-68
2022/05/01 09:10:56;;;;;;;9.35;6.82;;;;;;;20.38;45.77;97001.03;4986192;28;20133;-68
2022/05/01 09:13:42;;;;;;;10.43;7.55;;;;;;;18.75;49.68;97005.69;5001537;28;20100;-67
2022/05/01 09:16:12;;;;;;;8.43;6.60;;;;;;;19.10;49.25;96998.94;4993513;28;20046;-66
2022/05/01 09:18:45;;;;;;;10.05;6.93;;;;;;;19.43;47.70;97004.88;5000423;28;20133;-68
2022/05/01 09:21:11;;;;;;;9.38;6.40;;;;;;;20.80;44.31;97006.25;4995667;28;20046;-68
2022/05/01 09:23:42;;;;;;;10.60;8.07;;;;;;;21.19;42.79;97010.22;4992531;28;20490;-68
2022/05/01 09:26:09;;;;;;;9.98;6.63;;;;;;;21.29;42.04;97009.22;4977222;28;20099;-68
2022/05/01 09:28:36;;;;;;;8.85;6.45;;;;;;;16.38;52.94;97005.91;5000962;28;20046;-67
2022/05/01 09:31:02;;;;;;;9.63;6.80;;;;;;;18.21;49.33;97003.44;5000317;28;20120;-68
2022/05/01 09:33:27;;;;;;;8.60;6.80;;;;;;;16.97;54.57;96997.09;5008268;28;20045;-67
2022/05/01 09:35:53;;;;;;;11.52;7.25;;;;;;;15.98;56.09;96996.88;5000680;28;20433;-66
2022/05/01 09:38:23;;;;;;;10.75;6.32;;;;;;;17.52;52.05;96983.75;4995969;28;20578;-67
2022/05/01 09:40:54;;;;;;;11.20;7.53;;;;;;;16.54;53.50;96990.88;5001121;28;20488;-67
2022/05/01 09:43:34;;;;;;;10.75;6.95;;;;;;;18.00;50.73;96983.03;4993358;28;20046;-67
2022/05/01 09:46:23;;;;;;;9.65;6.55;;;;;;;19.65;46.81;96991.47;4992412;28;20055;-66
2022/05/01 09:48:57;;;;;;;12.43;7.43;;;;;;;20.12;47.39;96985.19;5000448;28;20038;-67
2022/05/01 09:51:24;;;;;;;10.52;6.88;;;;;;;20.02;47.87;96986.91;4996085;28;20369;-66
2022/05/01 09:53:49;;;;;;;9.75;7.45;;;;;;;18.51;50.85;96986.91;5000859;28;20490;-66
2022/05/01 09:56:15;;;;;;;11.85;6.75;;;;;;;18.09;52.71;96996.41;4994673;28;20046;-66
2022/05/01 09:58:40;;;;;;;11.60;7.00;;;;;;;17.81;53.35;96994.63;4991037;28;20046;-66
2022/05/01 10:01:10;;;;;;;11.63;7.07;;;;;;;17.72;53.46;96981.25;4986617;28;20069;-65
2022/05/01 10:03:39;;;;;;;11.73;6.78;;;;;;;17.79;52.60;96989.50;5000148;28;20052;-68
2022/05/01 10:06:07;;;;;;;11.98;7.95;;;;;;;17.17;53.50;96989.09;4994319;28;20042;-66
2022/05/01 10:08:36;;;;;;;10.73;7.10;;;;;;;17.87;52.66;96979.19;5000122;28;20470;-67
2022/05/01 10:11:02;;;;;;;9.32;5.82;;;;;;;19.23;47.11;96974.97;4982520;28;20082;-67
2022/05/01 10:13:28;;;;;;;7.85;5.55;;;;;;;17.93;48.05;96974.75;4990730;28;20046;-67
2022/05/01 10:15:54;;;;;;;9.93;6.05;;;;;;;20.04;45.91;96970.59;4992698;28;20053;-67
2022/05/01 10:18:21;;;;;;;13.68;7.57;;;;;;;21.04;43.10;96973.53;4995751;28;20487;-67
2022/05/01 10:20:47;;;;;;;10.57;5.78;;;;;;;20.37;44.41;96962.50;5000634;28;20042;-67
2022/05/01 10:23:13;;;;;;;10.88;5.68;;;;;;;20.58;45.12;96972.44;4971258;28;20049;-67
2022/05/01 10:25:46;;;;;;;7.82;6.10;;;;;;;20.21;44.94;96963.19;5007833;28;20038;-67
2022/05/01 10:28:33;;;;;;;8.82;6.03;;;;;;;19.29;47.08;96967.75;5007353;28;20050;-67
2022/05/01 10:34:17;;;;;;;9.02;5.45;;;;;;;19.58;44.62;96953.44;5006802;28;20054;-66
2022/05/01 10:36:42;;;;;;;8.60;5.47;;;;;;;20.12;45.25;96952.59;4996039;28;20070;-66
2022/05/01 10:39:15;;;;;;;7.80;5.32;;;;;;;20.23;43.91;96953.19;4989597;28;20533;-66
2022/05/01 10:41:45;;;;;;;7.25;5.03;;;;;;;19.98;44.79;96955.63;5004544;28;20223;-67
2022/05/01 10:44:30;;;;;;;10.82;5.57;;;;;;;21.55;41.09;96948.19;4999231;28;20037;-67
2022/05/01 10:47:04;;;;;;;6.75;4.47;;;;;;;21.25;40.27;96952.81;5001227;28;20053;-67
2022/05/01 10:49:36;;;;;;;7.25;5.47;;;;;;;18.65;44.99;96955.44;5003067;28;20046;-66
2022/05/01 10:52:18;;;;;;;9.32;5.07;;;;;;;20.37;44.48;96941.03;4984304;28;20054;-66
2022/05/01 10:55:05;;;;;;;9.68;4.28;;;;;;;20.60;43.27;96939.41;4987449;28;20137;-67
2022/05/01 10:57:31;;;;;;;7.53;4.60;;;;;;;19.90;44.64;96951.38;4974321;28;20043;-66
2022/05/01 11:00:10;;;;;;;6.90;4.53;;;;;;;19.14;46.17;96938.63;4993416;28;20042;-67
2022/05/01 11:02:45;;;;;;;6.70;4.68;;;;;;;18.97;45.77;96934.88;4985122;28;20074;-66
2022/05/01 11:05:31;;;;;;;7.05;4.65;;;;;;;19.03;45.35;96933.22;4972434;28;20077;-66
2022/05/01 11:07:57;;;;;;;7.45;4.97;;;;;;;19.72;44.60;96941.34;5001926;28;20041;-66
2022/05/01 11:10:25;;;;;;;7.53;4.93;;;;;;;19.89;43.37;96933.94;5008474;28;20641;-67
2022/05/01 11:12:52;;;;;;;5.43;4.07;;;;;;;20.00;44.21;96926.19;5003148;28;20052;-65
2022/05/01 11:15:26;;;;;;;6.45;4.47;;;;;;;19.84;42.72;96923.28;4994874;28;20041;-65
2022/05/01 11:17:52;;;;;;;7.15;4.38;;;;;;;19.87;42.32;96922.44;5003044;28;20045;-67
2022/05/01 11:20:23;;;;;;;6.15;3.67;;;;;;;19.49;40.79;96917.84;4998268;28;20046;-67
2022/05/01 11:22:49;;;;;;;8.52;4.28;;;;;;;20.12;40.03;96916.44;5003704;28;20525;-69
2022/05/01 11:25:33;;;;;;;9.75;4.70;;;;;;;19.80;41.39;96908.66;4998795;28;20045;-67
2022/05/01 11:27:59;;;;;;;8.50;3.30;;;;;;;19.83;39.60;96919.72;5003842;28;20514;-67
2022/05/01 11:30:27;;;;;;;6.65;3.90;;;;;;;19.60;41.82;96912.13;4997476;28;20050;-66
2022/05/01 11:33:08;;;;;;;6.70;4.22;;;;;;;19.51;41.21;96908.31;5000970;28;20049;-67
2022/05/01 11:35:56;;;;;;;6.25;3.83;;;;;;;20.03;40.92;96905.09;4987251;28;20140;-67
2022/05/01 11:38:38;;;;;;;5.85;4.45;;;;;;;20.13;40.41;96901.34;4998499;28;20712;-67
2022/05/01 11:41:04;;;;;;;8.18;3.55;;;;;;;19.60;40.70;96891.91;4998445;28;20049;-66
2022/05/01 11:43:31;;;;;;;6.30;3.80;;;;;;;19.27;42.60;96894.41;4988865;28;20390;-67
2022/05/01 11:45:58;;;;;;;6.15;3.90;;;;;;;19.64;41.96;96885.09;4976300;28;20099;-65
2022/05/01 11:48:25;;;;;;;5.57;4.13;;;;;;;19.30;42.25;96885.22;4977765;28;20160;-66
2022/05/01 11:50:52;;;;;;;5.47;3.55;;;;;;;19.28;43.51;96877.34;4994851;28;20042;-66
2022/05/01 11:53:24;;;;;;;9.48;3.55;;;;;;;19.77;41.72;96878.94;4996842;28;20101;-66